sensor_id;sensor_type;location;lat;lon;timestamp;temperature;humidity
16283;DHT22;8249;48.708;9.030;2023-06-10T00:01:39;17.00;99.90
16283;DHT22;8249;48.708;9.030;2023-06-10T00:04:08;16.90;99.90
16283;DHT22;8249;48.708;9.030;2023-06-10T00:06:35;16.80;99.90
16283;DHT22;8249;48.708;9.030;2023-06-10T00:09:03;16.80;99.90
16283;DHT22;8249;48.708;9.030;2023-06-10T00:11:31;16.70;99.90
16283;DHT22;8249;48.708;9.030;2023-06-10T00:13:58;16.70;99.90
16283;DHT22;8249;48.708;9.030;2023-06-10T00:16:25;16.60;99.90
16283;DHT22;8249;48.708;9.030;2023-06-10T00:18:53;16.60;99.90
16283;DHT22;8249;48.708;9.030;2023-06-10T00:21:22;16.50;99.90
16283;DHT22;8249;48.708;9.030;2023-06-10T00:23:50;16.50;99.90
16283;DHT22;8249;48.708;9.030;2023-06-10T00:26:17;16.50;99.90
16283;DHT22;8249;48.708;9.030;2023-06-10T00:28:45;16.40;99.90
16283;DHT22;8249;48.708;9.030;2023-06-10T00:31:12;16.30;99.90
16283;DHT22;8249;48.708;9.030;2023-06-10T00:33:38;16.30;99.90
16283;DHT22;8249;48.708;9.030;2023-06-10T00:36:05;16.30;99.90
16283;DHT22;8249;48.708;9.030;2023-06-10T00:38:34;16.20;99.90
16283;DHT22;8249;48.708;9.030;2023-06-10T00:41:01;16.20;99.90
16283;DHT22;8249;48.708;9.030;2023-06-10T00:43:28;16.10;99.90
16283;DHT22;8249;48.708;9.030;2023-06-10T00:45:55;16.10;99.90
16283;DHT22;8249;48.708;9.030;2023-06-10T00:48:22;16.00;99.90
16283;DHT22;8249;48.708;9.030;2023-06-10T00:50:50;16.00;99.90
16283;DHT22;8249;48.708;9.030;2023-06-10T00:53:18;16.00;99.90
16283;DHT22;8249;48.708;9.030;2023-06-10T00:55:46;16.00;99.90
16283;DHT22;8249;48.708;9.030;2023-06-10T00:58:13;16.00;99.90
16283;DHT22;8249;48.708;9.030;2023-06-10T01:00:43;16.00;99.90
16283;DHT22;8249;48.708;9.030;2023-06-10T01:03:10;15.90;99.90
16283;DHT22;8249;48.708;9.030;2023-06-10T01:05:38;15.90;99.90
16283;DHT22;8249;48.708;9.030;2023-06-10T01:08:09;15.90;99.90
16283;DHT22;8249;48.708;9.030;2023-06-10T01:10:43;15.90;99.90
16283;DHT22;8249;48.708;9.030;2023-06-10T01:13:15;15.90;99.90
16283;DHT22;8249;48.708;9.030;2023-06-10T01:15:44;15.90;99.90
16283;DHT22;8249;48.708;9.030;2023-06-10T01:18:12;15.80;99.90
16283;DHT22;8249;48.708;9.030;2023-06-10T01:20:42;15.80;99.90
16283;DHT22;8249;48.708;9.030;2023-06-10T01:23:12;15.80;99.90
16283;DHT22;8249;48.708;9.030;2023-06-10T01:25:41;15.70;99.90
16283;DHT22;8249;48.708;9.030;2023-06-10T01:28:13;15.70;99.90
16283;DHT22;8249;48.708;9.030;2023-06-10T01:30:46;15.70;99.90
16283;DHT22;8249;48.708;9.030;2023-06-10T01:33:18;15.70;99.90
16283;DHT22;8249;48.708;9.030;2023-06-10T01:35:50;15.60;99.90
16283;DHT22;8249;48.708;9.030;2023-06-10T01:38:19;15.60;99.90
16283;DHT22;8249;48.708;9.030;2023-06-10T01:40:48;15.60;99.90
16283;DHT22;8249;48.708;9.030;2023-06-10T01:43:16;15.50;99.90
16283;DHT22;8249;48.708;9.030;2023-06-10T01:45:42;15.40;99.90
16283;DHT22;8249;48.708;9.030;2023-06-10T01:48:09;15.40;99.90
16283;DHT22;8249;48.708;9.030;2023-06-10T01:50:37;15.40;99.90
16283;DHT22;8249;48.708;9.030;2023-06-10T01:53:04;15.30;99.90
16283;DHT22;8249;48.708;9.030;2023-06-10T01:55:33;15.30;99.90
16283;DHT22;8249;48.708;9.030;2023-06-10T01:58:00;15.20;99.90
16283;DHT22;8249;48.708;9.030;2023-06-10T02:00:27;15.20;99.90
16283;DHT22;8249;48.708;9.030;2023-06-10T02:02:54;15.20;99.90
16283;DHT22;8249;48.708;9.030;2023-06-10T02:05:20;15.20;99.90
16283;DHT22;8249;48.708;9.030;2023-06-10T02:07:48;15.20;99.90
16283;DHT22;8249;48.708;9.030;2023-06-10T02:10:15;15.20;99.90
16283;DHT22;8249;48.708;9.030;2023-06-10T02:12:43;15.30;99.90
16283;DHT22;8249;48.708;9.030;2023-06-10T02:15:10;15.20;99.90
16283;DHT22;8249;48.708;9.030;2023-06-10T02:17:37;15.20;99.90
16283;DHT22;8249;48.708;9.030;2023-06-10T02:20:05;15.20;99.90
16283;DHT22;8249;48.708;9.030;2023-06-10T02:22:33;15.20;99.90
16283;DHT22;8249;48.708;9.030;2023-06-10T02:25:00;15.20;99.90
16283;DHT22;8249;48.708;9.030;2023-06-10T02:27:27;15.10;99.90
16283;DHT22;8249;48.708;9.030;2023-06-10T02:29:56;15.00;99.90
16283;DHT22;8249;48.708;9.030;2023-06-10T02:32:24;15.10;99.90
16283;DHT22;8249;48.708;9.030;2023-06-10T02:34:51;15.00;99.90
16283;DHT22;8249;48.708;9.030;2023-06-10T02:37:21;15.00;99.90
16283;DHT22;8249;48.708;9.030;2023-06-10T02:39:48;15.00;99.90
16283;DHT22;8249;48.708;9.030;2023-06-10T02:42:15;14.90;99.90
16283;DHT22;8249;48.708;9.030;2023-06-10T02:44:42;14.90;99.90
16283;DHT22;8249;48.708;9.030;2023-06-10T02:47:15;14.90;99.90
16283;DHT22;8249;48.708;9.030;2023-06-10T02:49:42;14.80;99.90
16283;DHT22;8249;48.708;9.030;2023-06-10T02:52:09;14.80;99.90
16283;DHT22;8249;48.708;9.030;2023-06-10T02:54:37;14.80;99.90
16283;DHT22;8249;48.708;9.030;2023-06-10T02:57:07;14.70;99.90
16283;DHT22;8249;48.708;9.030;2023-06-10T02:59:35;14.70;99.90
16283;DHT22;8249;48.708;9.030;2023-06-10T03:02:03;14.70;99.90
16283;DHT22;8249;48.708;9.030;2023-06-10T03:04:37;14.60;99.90
16283;DHT22;8249;48.708;9.030;2023-06-10T03:07:09;14.50;99.90
16283;DHT22;8249;48.708;9.030;2023-06-10T03:09:37;14.50;99.90
16283;DHT22;8249;48.708;9.030;2023-06-10T03:12:10;14.50;99.90
16283;DHT22;8249;48.708;9.030;2023-06-10T03:14:42;14.50;99.90
16283;DHT22;8249;48.708;9.030;2023-06-10T03:17:10;14.40;99.90
16283;DHT22;8249;48.708;9.030;2023-06-10T03:19:41;14.40;99.90
16283;DHT22;8249;48.708;9.030;2023-06-10T03:22:10;14.30;99.90
16283;DHT22;8249;48.708;9.030;2023-06-10T03:24:54;14.30;99.90
16283;DHT22;8249;48.708;9.030;2023-06-10T03:27:23;14.20;99.90
16283;DHT22;8249;48.708;9.030;2023-06-10T03:29:54;14.20;99.90
16283;DHT22;8249;48.708;9.030;2023-06-10T03:32:21;14.20;99.90
16283;DHT22;8249;48.708;9.030;2023-06-10T03:34:50;14.20;99.90
16283;DHT22;8249;48.708;9.030;2023-06-10T03:37:18;14.20;99.90
16283;DHT22;8249;48.708;9.030;2023-06-10T03:39:47;14.20;99.90
16283;DHT22;8249;48.708;9.030;2023-06-10T03:42:14;14.10;99.90
16283;DHT22;8249;48.708;9.030;2023-06-10T03:44:41;14.00;99.90
16283;DHT22;8249;48.708;9.030;2023-06-10T03:47:08;14.00;99.90
16283;DHT22;8249;48.708;9.030;2023-06-10T03:49:36;14.00;99.90
16283;DHT22;8249;48.708;9.030;2023-06-10T03:52:06;14.00;99.90
16283;DHT22;8249;48.708;9.030;2023-06-10T03:54:33;14.00;99.90
16283;DHT22;8249;48.708;9.030;2023-06-10T03:57:02;14.00;99.90
16283;DHT22;8249;48.708;9.030;2023-06-10T03:59:30;14.00;99.90
16283;DHT22;8249;48.708;9.030;2023-06-10T04:01:56;14.00;99.90
16283;DHT22;8249;48.708;9.030;2023-06-10T04:04:24;14.10;99.90
16283;DHT22;8249;48.708;9.030;2023-06-10T04:06:51;14.00;99.90
16283;DHT22;8249;48.708;9.030;2023-06-10T04:09:19;14.00;99.90
16283;DHT22;8249;48.708;9.030;2023-06-10T04:11:46;14.10;99.90
16283;DHT22;8249;48.708;9.030;2023-06-10T04:14:13;14.10;99.90
16283;DHT22;8249;48.708;9.030;2023-06-10T04:16:42;14.10;99.90
16283;DHT22;8249;48.708;9.030;2023-06-10T04:19:10;14.10;99.90
16283;DHT22;8249;48.708;9.030;2023-06-10T04:21:37;14.10;99.90
16283;DHT22;8249;48.708;9.030;2023-06-10T04:24:05;14.20;99.90
16283;DHT22;8249;48.708;9.030;2023-06-10T04:26:35;14.20;99.90
16283;DHT22;8249;48.708;9.030;2023-06-10T04:29:03;14.30;99.90
16283;DHT22;8249;48.708;9.030;2023-06-10T04:31:30;14.30;99.90
16283;DHT22;8249;48.708;9.030;2023-06-10T04:33:58;14.40;99.90
16283;DHT22;8249;48.708;9.030;2023-06-10T04:36:26;14.50;99.90
16283;DHT22;8249;48.708;9.030;2023-06-10T04:38:55;14.70;99.90
16283;DHT22;8249;48.708;9.030;2023-06-10T04:41:22;14.80;99.90
16283;DHT22;8249;48.708;9.030;2023-06-10T04:43:51;14.90;99.90
16283;DHT22;8249;48.708;9.030;2023-06-10T04:46:19;15.00;99.90
16283;DHT22;8249;48.708;9.030;2023-06-10T04:48:46;15.10;99.90
16283;DHT22;8249;48.708;9.030;2023-06-10T04:51:13;15.20;99.90
16283;DHT22;8249;48.708;9.030;2023-06-10T04:53:40;15.30;99.90
16283;DHT22;8249;48.708;9.030;2023-06-10T04:56:07;15.40;99.90
16283;DHT22;8249;48.708;9.030;2023-06-10T04:58:34;15.50;99.90
16283;DHT22;8249;48.708;9.030;2023-06-10T05:01:03;15.70;99.90
16283;DHT22;8249;48.708;9.030;2023-06-10T05:03:30;15.80;99.90
16283;DHT22;8249;48.708;9.030;2023-06-10T05:05:56;15.90;99.90
16283;DHT22;8249;48.708;9.030;2023-06-10T05:08:23;15.90;99.90
16283;DHT22;8249;48.708;9.030;2023-06-10T05:10:50;16.10;99.90
16283;DHT22;8249;48.708;9.030;2023-06-10T05:13:17;16.10;99.90
16283;DHT22;8249;48.708;9.030;2023-06-10T05:15:44;16.20;99.90
16283;DHT22;8249;48.708;9.030;2023-06-10T05:18:13;16.30;99.90
16283;DHT22;8249;48.708;9.030;2023-06-10T05:20:40;16.50;99.90
16283;DHT22;8249;48.708;9.030;2023-06-10T05:23:07;16.50;99.90
16283;DHT22;8249;48.708;9.030;2023-06-10T05:25:34;16.70;99.90
16283;DHT22;8249;48.708;9.030;2023-06-10T05:28:01;16.80;99.90
16283;DHT22;8249;48.708;9.030;2023-06-10T05:30:28;17.00;99.90
16283;DHT22;8249;48.708;9.030;2023-06-10T05:32:55;17.10;99.90
16283;DHT22;8249;48.708;9.030;2023-06-10T05:35:24;17.20;99.90
16283;DHT22;8249;48.708;9.030;2023-06-10T05:37:51;17.40;99.90
16283;DHT22;8249;48.708;9.030;2023-06-10T05:40:18;17.60;99.90
16283;DHT22;8249;48.708;9.030;2023-06-10T05:42:45;17.70;99.90
16283;DHT22;8249;48.708;9.030;2023-06-10T05:45:12;17.90;99.90
16283;DHT22;8249;48.708;9.030;2023-06-10T05:47:40;18.10;99.90
16283;DHT22;8249;48.708;9.030;2023-06-10T05:50:07;18.30;99.90
16283;DHT22;8249;48.708;9.030;2023-06-10T05:52:36;18.40;99.90
16283;DHT22;8249;48.708;9.030;2023-06-10T05:55:06;18.60;99.90
16283;DHT22;8249;48.708;9.030;2023-06-10T05:57:33;18.80;99.90
16283;DHT22;8249;48.708;9.030;2023-06-10T06:00:00;18.90;99.90
16283;DHT22;8249;48.708;9.030;2023-06-10T06:02:27;19.10;99.90
16283;DHT22;8249;48.708;9.030;2023-06-10T06:04:54;19.20;99.90
16283;DHT22;8249;48.708;9.030;2023-06-10T06:07:21;19.30;99.90
16283;DHT22;8249;48.708;9.030;2023-06-10T06:09:50;19.40;99.90
16283;DHT22;8249;48.708;9.030;2023-06-10T06:12:17;19.50;99.90
16283;DHT22;8249;48.708;9.030;2023-06-10T06:14:43;19.70;99.90
16283;DHT22;8249;48.708;9.030;2023-06-10T06:17:11;19.70;99.90
16283;DHT22;8249;48.708;9.030;2023-06-10T06:19:38;19.90;99.90
16283;DHT22;8249;48.708;9.030;2023-06-10T06:22:05;20.10;99.90
16283;DHT22;8249;48.708;9.030;2023-06-10T06:24:32;20.10;99.90
16283;DHT22;8249;48.708;9.030;2023-06-10T06:27:00;20.30;99.90
16283;DHT22;8249;48.708;9.030;2023-06-10T06:29:27;20.50;99.90
16283;DHT22;8249;48.708;9.030;2023-06-10T06:31:55;20.60;99.90
16283;DHT22;8249;48.708;9.030;2023-06-10T06:34:22;20.70;99.90
16283;DHT22;8249;48.708;9.030;2023-06-10T06:36:49;20.80;99.90
16283;DHT22;8249;48.708;9.030;2023-06-10T06:39:17;20.90;99.90
16283;DHT22;8249;48.708;9.030;2023-06-10T06:41:44;21.00;99.90
16283;DHT22;8249;48.708;9.030;2023-06-10T06:44:13;21.00;99.90
16283;DHT22;8249;48.708;9.030;2023-06-10T06:46:43;21.00;99.90
16283;DHT22;8249;48.708;9.030;2023-06-10T06:49:10;21.00;99.90
16283;DHT22;8249;48.708;9.030;2023-06-10T06:51:37;21.20;99.90
16283;DHT22;8249;48.708;9.030;2023-06-10T06:54:04;21.30;99.90
16283;DHT22;8249;48.708;9.030;2023-06-10T06:56:31;21.30;99.90
16283;DHT22;8249;48.708;9.030;2023-06-10T06:58:58;21.50;99.90
16283;DHT22;8249;48.708;9.030;2023-06-10T07:01:26;21.50;99.90
16283;DHT22;8249;48.708;9.030;2023-06-10T07:03:53;21.50;99.90
16283;DHT22;8249;48.708;9.030;2023-06-10T07:06:20;21.50;99.90
16283;DHT22;8249;48.708;9.030;2023-06-10T07:08:48;21.60;99.90
16283;DHT22;8249;48.708;9.030;2023-06-10T07:11:15;21.70;99.90
16283;DHT22;8249;48.708;9.030;2023-06-10T07:13:43;21.90;99.90
16283;DHT22;8249;48.708;9.030;2023-06-10T07:16:10;22.10;99.90
16283;DHT22;8249;48.708;9.030;2023-06-10T07:18:38;22.00;99.90
16283;DHT22;8249;48.708;9.030;2023-06-10T07:21:05;22.00;99.90
16283;DHT22;8249;48.708;9.030;2023-06-10T07:23:32;22.10;99.90
16283;DHT22;8249;48.708;9.030;2023-06-10T07:25:59;22.30;99.90
16283;DHT22;8249;48.708;9.030;2023-06-10T07:28:26;22.40;99.90
16283;DHT22;8249;48.708;9.030;2023-06-10T07:30:52;22.60;99.90
16283;DHT22;8249;48.708;9.030;2023-06-10T07:33:19;22.70;99.90
16283;DHT22;8249;48.708;9.030;2023-06-10T07:35:50;22.80;99.90
16283;DHT22;8249;48.708;9.030;2023-06-10T07:38:17;22.90;99.90
16283;DHT22;8249;48.708;9.030;2023-06-10T07:40:45;23.00;99.90
16283;DHT22;8249;48.708;9.030;2023-06-10T07:43:12;23.10;99.90
16283;DHT22;8249;48.708;9.030;2023-06-10T07:45:39;23.20;99.90
16283;DHT22;8249;48.708;9.030;2023-06-10T07:48:06;23.20;99.90
16283;DHT22;8249;48.708;9.030;2023-06-10T07:50:33;23.20;99.90
16283;DHT22;8249;48.708;9.030;2023-06-10T07:53:02;23.30;99.90
16283;DHT22;8249;48.708;9.030;2023-06-10T07:55:29;23.30;99.90
16283;DHT22;8249;48.708;9.030;2023-06-10T07:57:56;23.40;99.90
16283;DHT22;8249;48.708;9.030;2023-06-10T08:00:23;23.40;99.90
16283;DHT22;8249;48.708;9.030;2023-06-10T08:02:49;23.30;99.90
16283;DHT22;8249;48.708;9.030;2023-06-10T08:05:17;23.50;99.90
16283;DHT22;8249;48.708;9.030;2023-06-10T08:07:45;23.60;99.90
16283;DHT22;8249;48.708;9.030;2023-06-10T08:10:13;23.70;99.90
16283;DHT22;8249;48.708;9.030;2023-06-10T08:12:40;23.60;99.90
16283;DHT22;8249;48.708;9.030;2023-06-10T08:15:08;23.70;99.90
16283;DHT22;8249;48.708;9.030;2023-06-10T08:17:34;23.80;99.90
16283;DHT22;8249;48.708;9.030;2023-06-10T08:20:01;24.00;99.90
16283;DHT22;8249;48.708;9.030;2023-06-10T08:22:29;24.10;99.90
16283;DHT22;8249;48.708;9.030;2023-06-10T08:24:56;24.30;99.90
16283;DHT22;8249;48.708;9.030;2023-06-10T08:27:24;24.30;99.90
16283;DHT22;8249;48.708;9.030;2023-06-10T08:29:51;24.50;99.90
16283;DHT22;8249;48.708;9.030;2023-06-10T08:32:18;24.70;99.90
16283;DHT22;8249;48.708;9.030;2023-06-10T08:34:45;24.80;99.90
16283;DHT22;8249;48.708;9.030;2023-06-10T08:37:12;24.90;99.90
16283;DHT22;8249;48.708;9.030;2023-06-10T08:39:39;25.10;99.90
16283;DHT22;8249;48.708;9.030;2023-06-10T08:42:11;25.30;99.90
16283;DHT22;8249;48.708;9.030;2023-06-10T08:44:46;25.40;99.90
16283;DHT22;8249;48.708;9.030;2023-06-10T08:47:14;25.40;99.90
16283;DHT22;8249;48.708;9.030;2023-06-10T08:49:44;25.40;99.90
16283;DHT22;8249;48.708;9.030;2023-06-10T08:52:15;25.40;99.90
16283;DHT22;8249;48.708;9.030;2023-06-10T08:54:43;25.10;99.90
16283;DHT22;8249;48.708;9.030;2023-06-10T08:57:15;25.20;99.90
16283;DHT22;8249;48.708;9.030;2023-06-10T08:59:47;25.30;99.90
16283;DHT22;8249;48.708;9.030;2023-06-10T09:02:15;25.50;99.90
16283;DHT22;8249;48.708;9.030;2023-06-10T09:04:46;25.20;99.90
16283;DHT22;8249;48.708;9.030;2023-06-10T09:07:14;25.20;99.90
16283;DHT22;8249;48.708;9.030;2023-06-10T09:09:42;25.40;99.90
16283;DHT22;8249;48.708;9.030;2023-06-10T09:12:10;25.30;99.90
16283;DHT22;8249;48.708;9.030;2023-06-10T09:14:37;25.30;99.90
16283;DHT22;8249;48.708;9.030;2023-06-10T09:17:06;25.60;99.90
16283;DHT22;8249;48.708;9.030;2023-06-10T09:19:33;26.10;99.90
16283;DHT22;8249;48.708;9.030;2023-06-10T09:22:01;26.40;99.90
16283;DHT22;8249;48.708;9.030;2023-06-10T09:24:29;26.60;99.90
16283;DHT22;8249;48.708;9.030;2023-06-10T09:27:02;26.50;99.90
16283;DHT22;8249;48.708;9.030;2023-06-10T09:29:29;26.60;99.90
16283;DHT22;8249;48.708;9.030;2023-06-10T09:31:56;26.80;99.90
16283;DHT22;8249;48.708;9.030;2023-06-10T09:34:26;26.80;99.90
16283;DHT22;8249;48.708;9.030;2023-06-10T09:36:53;27.10;99.90
16283;DHT22;8249;48.708;9.030;2023-06-10T09:39:21;27.40;99.90
16283;DHT22;8249;48.708;9.030;2023-06-10T09:41:48;27.70;99.90
16283;DHT22;8249;48.708;9.030;2023-06-10T09:44:16;27.60;99.60
16283;DHT22;8249;48.708;9.030;2023-06-10T09:46:45;27.10;99.90
16283;DHT22;8249;48.708;9.030;2023-06-10T09:49:13;27.40;99.90
16283;DHT22;8249;48.708;9.030;2023-06-10T09:51:50;27.70;99.90
16283;DHT22;8249;48.708;9.030;2023-06-10T09:54:18;27.70;99.50
16283;DHT22;8249;48.708;9.030;2023-06-10T09:56:47;27.90;98.70
16283;DHT22;8249;48.708;9.030;2023-06-10T09:59:14;28.10;99.10
16283;DHT22;8249;48.708;9.030;2023-06-10T10:01:41;28.40;98.20
16283;DHT22;8249;48.708;9.030;2023-06-10T10:04:08;28.30;97.70
16283;DHT22;8249;48.708;9.030;2023-06-10T10:06:36;28.30;97.30
16283;DHT22;8249;48.708;9.030;2023-06-10T10:09:06;28.30;97.50
16283;DHT22;8249;48.708;9.030;2023-06-10T10:11:33;28.00;97.10
16283;DHT22;8249;48.708;9.030;2023-06-10T10:14:03;27.80;97.50
16283;DHT22;8249;48.708;9.030;2023-06-10T10:16:35;27.20;97.70
16283;DHT22;8249;48.708;9.030;2023-06-10T10:19:07;26.90;98.50
16283;DHT22;8249;48.708;9.030;2023-06-10T10:21:42;26.50;98.90
16283;DHT22;8249;48.708;9.030;2023-06-10T10:24:16;27.30;99.50
16283;DHT22;8249;48.708;9.030;2023-06-10T10:26:46;27.90;98.30
16283;DHT22;8249;48.708;9.030;2023-06-10T10:29:20;28.30;98.50
16283;DHT22;8249;48.708;9.030;2023-06-10T10:31:51;28.40;96.50
16283;DHT22;8249;48.708;9.030;2023-06-10T10:34:22;28.60;96.90
16283;DHT22;8249;48.708;9.030;2023-06-10T10:36:51;29.10;95.30
16283;DHT22;8249;48.708;9.030;2023-06-10T10:39:20;29.40;94.70
16283;DHT22;8249;48.708;9.030;2023-06-10T10:41:48;29.70;93.70
16283;DHT22;8249;48.708;9.030;2023-06-10T10:44:16;29.80;92.70
16283;DHT22;8249;48.708;9.030;2023-06-10T10:46:44;29.30;93.30
16283;DHT22;8249;48.708;9.030;2023-06-10T10:49:13;29.80;93.70
16283;DHT22;8249;48.708;9.030;2023-06-10T10:51:55;30.20;93.10
16283;DHT22;8249;48.708;9.030;2023-06-10T10:54:30;30.80;91.90
16283;DHT22;8249;48.708;9.030;2023-06-10T10:57:12;30.70;91.60
16283;DHT22;8249;48.708;9.030;2023-06-10T10:59:55;30.10;90.80
16283;DHT22;8249;48.708;9.030;2023-06-10T11:02:36;29.60;91.90
16283;DHT22;8249;48.708;9.030;2023-06-10T11:05:05;29.20;92.60
16283;DHT22;8249;48.708;9.030;2023-06-10T11:07:33;28.70;92.40
16283;DHT22;8249;48.708;9.030;2023-06-10T11:10:03;28.90;92.80
16283;DHT22;8249;48.708;9.030;2023-06-10T11:12:50;29.20;93.40
16283;DHT22;8249;48.708;9.030;2023-06-10T11:15:18;30.00;93.20
16283;DHT22;8249;48.708;9.030;2023-06-10T11:18:08;29.80;92.10
16283;DHT22;8249;48.708;9.030;2023-06-10T11:20:43;29.30;92.20
16283;DHT22;8249;48.708;9.030;2023-06-10T11:23:10;29.00;92.90
16283;DHT22;8249;48.708;9.030;2023-06-10T11:25:40;28.80;93.00
16283;DHT22;8249;48.708;9.030;2023-06-10T11:28:17;28.80;92.60
16283;DHT22;8249;48.708;9.030;2023-06-10T11:30:45;29.00;93.50
16283;DHT22;8249;48.708;9.030;2023-06-10T11:33:16;28.80;92.70
16283;DHT22;8249;48.708;9.030;2023-06-10T11:35:43;28.70;92.70
16283;DHT22;8249;48.708;9.030;2023-06-10T11:38:10;28.50;92.90
16283;DHT22;8249;48.708;9.030;2023-06-10T11:40:39;29.40;93.00
16283;DHT22;8249;48.708;9.030;2023-06-10T11:43:06;29.90;91.70
16283;DHT22;8249;48.708;9.030;2023-06-10T11:45:33;29.40;91.30
16283;DHT22;8249;48.708;9.030;2023-06-10T11:48:00;29.00;91.00
16283;DHT22;8249;48.708;9.030;2023-06-10T11:50:30;28.60;91.40
16283;DHT22;8249;48.708;9.030;2023-06-10T11:52:57;28.70;92.30
16283;DHT22;8249;48.708;9.030;2023-06-10T11:55:24;29.30;91.60
16283;DHT22;8249;48.708;9.030;2023-06-10T11:57:53;29.70;90.60
16283;DHT22;8249;48.708;9.030;2023-06-10T12:00:23;29.50;90.40
16283;DHT22;8249;48.708;9.030;2023-06-10T12:02:56;30.30;90.90
16283;DHT22;8249;48.708;9.030;2023-06-10T12:05:23;30.40;90.30
16283;DHT22;8249;48.708;9.030;2023-06-10T12:08:08;29.80;90.60
16283;DHT22;8249;48.708;9.030;2023-06-10T12:10:40;29.30;90.30
16283;DHT22;8249;48.708;9.030;2023-06-10T12:13:09;28.80;90.80
16283;DHT22;8249;48.708;9.030;2023-06-10T12:15:36;28.80;91.30
16283;DHT22;8249;48.708;9.030;2023-06-10T12:18:03;29.70;91.40
16283;DHT22;8249;48.708;9.030;2023-06-10T12:20:31;30.60;90.60
16283;DHT22;8249;48.708;9.030;2023-06-10T12:22:59;30.80;88.80
16283;DHT22;8249;48.708;9.030;2023-06-10T12:25:28;31.20;88.80
16283;DHT22;8249;48.708;9.030;2023-06-10T12:27:56;31.10;87.60
16283;DHT22;8249;48.708;9.030;2023-06-10T12:30:26;31.50;89.20
16283;DHT22;8249;48.708;9.030;2023-06-10T12:32:54;32.00;87.10
16283;DHT22;8249;48.708;9.030;2023-06-10T12:35:22;32.40;86.90
16283;DHT22;8249;48.708;9.030;2023-06-10T12:37:58;32.40;82.90
16283;DHT22;8249;48.708;9.030;2023-06-10T12:40:27;32.10;83.40
16283;DHT22;8249;48.708;9.030;2023-06-10T12:42:55;32.20;84.40
16283;DHT22;8249;48.708;9.030;2023-06-10T12:45:31;32.00;82.30
16283;DHT22;8249;48.708;9.030;2023-06-10T12:48:05;32.10;83.50
16283;DHT22;8249;48.708;9.030;2023-06-10T12:50:35;31.60;84.90
16283;DHT22;8249;48.708;9.030;2023-06-10T12:53:03;31.00;83.30
16283;DHT22;8249;48.708;9.030;2023-06-10T12:55:31;30.40;84.00
16283;DHT22;8249;48.708;9.030;2023-06-10T12:57:59;30.50;83.30
16283;DHT22;8249;48.708;9.030;2023-06-10T13:00:28;30.20;84.20
16283;DHT22;8249;48.708;9.030;2023-06-10T13:02:57;31.00;85.70
16283;DHT22;8249;48.708;9.030;2023-06-10T13:05:27;31.50;83.70
16283;DHT22;8249;48.708;9.030;2023-06-10T13:07:54;31.90;86.00
16283;DHT22;8249;48.708;9.030;2023-06-10T13:10:21;31.70;82.20
16283;DHT22;8249;48.708;9.030;2023-06-10T13:12:49;31.10;83.10
16283;DHT22;8249;48.708;9.030;2023-06-10T13:15:16;30.30;84.20
16283;DHT22;8249;48.708;9.030;2023-06-10T13:17:44;29.80;85.80
16283;DHT22;8249;48.708;9.030;2023-06-10T13:20:16;29.50;86.30
16283;DHT22;8249;48.708;9.030;2023-06-10T13:22:43;29.10;86.60
16283;DHT22;8249;48.708;9.030;2023-06-10T13:25:11;28.90;87.50
16283;DHT22;8249;48.708;9.030;2023-06-10T13:27:38;28.80;87.80
16283;DHT22;8249;48.708;9.030;2023-06-10T13:30:06;28.70;87.60
16283;DHT22;8249;48.708;9.030;2023-06-10T13:32:34;28.90;88.30
16283;DHT22;8249;48.708;9.030;2023-06-10T13:35:01;29.70;87.20
16283;DHT22;8249;48.708;9.030;2023-06-10T13:37:30;30.50;87.40
16283;DHT22;8249;48.708;9.030;2023-06-10T13:39:59;31.30;86.50
16283;DHT22;8249;48.708;9.030;2023-06-10T13:42:26;31.90;84.90
16283;DHT22;8249;48.708;9.030;2023-06-10T13:44:54;32.10;82.00
16283;DHT22;8249;48.708;9.030;2023-06-10T13:47:22;32.20;83.90
16283;DHT22;8249;48.708;9.030;2023-06-10T13:49:50;32.60;82.30
16283;DHT22;8249;48.708;9.030;2023-06-10T13:52:17;32.70;81.80
16283;DHT22;8249;48.708;9.030;2023-06-10T13:54:45;32.60;78.90
16283;DHT22;8249;48.708;9.030;2023-06-10T13:57:12;32.70;80.40
16283;DHT22;8249;48.708;9.030;2023-06-10T13:59:39;32.40;80.70
16283;DHT22;8249;48.708;9.030;2023-06-10T14:02:06;31.80;81.70
16283;DHT22;8249;48.708;9.030;2023-06-10T14:04:34;31.00;81.30
16283;DHT22;8249;48.708;9.030;2023-06-10T14:07:01;30.50;80.90
16283;DHT22;8249;48.708;9.030;2023-06-10T14:09:28;29.90;82.20
16283;DHT22;8249;48.708;9.030;2023-06-10T14:11:56;29.40;82.90
16283;DHT22;8249;48.708;9.030;2023-06-10T14:14:24;29.00;83.80
16283;DHT22;8249;48.708;9.030;2023-06-10T14:16:50;28.70;84.90
16283;DHT22;8249;48.708;9.030;2023-06-10T14:19:17;28.60;85.50
16283;DHT22;8249;48.708;9.030;2023-06-10T14:21:49;28.30;85.30
16283;DHT22;8249;48.708;9.030;2023-06-10T14:24:16;28.20;85.90
16283;DHT22;8249;48.708;9.030;2023-06-10T14:26:43;28.20;86.10
16283;DHT22;8249;48.708;9.030;2023-06-10T14:29:12;28.70;84.90
16283;DHT22;8249;48.708;9.030;2023-06-10T14:31:39;29.40;86.70
16283;DHT22;8249;48.708;9.030;2023-06-10T14:34:06;29.20;83.90
16283;DHT22;8249;48.708;9.030;2023-06-10T14:36:34;28.90;84.10
16283;DHT22;8249;48.708;9.030;2023-06-10T14:39:02;29.20;84.10
16283;DHT22;8249;48.708;9.030;2023-06-10T14:41:29;29.50;82.90
16283;DHT22;8249;48.708;9.030;2023-06-10T14:43:56;30.00;83.50
16283;DHT22;8249;48.708;9.030;2023-06-10T14:46:25;30.30;82.50
16283;DHT22;8249;48.708;9.030;2023-06-10T14:48:52;30.60;81.20
16283;DHT22;8249;48.708;9.030;2023-06-10T14:51:19;30.60;80.70
16283;DHT22;8249;48.708;9.030;2023-06-10T14:53:46;30.70;80.10
16283;DHT22;8249;48.708;9.030;2023-06-10T14:56:13;30.80;81.50
16283;DHT22;8249;48.708;9.030;2023-06-10T14:58:40;30.70;80.90
16283;DHT22;8249;48.708;9.030;2023-06-10T15:01:07;30.90;80.60
16283;DHT22;8249;48.708;9.030;2023-06-10T15:03:36;31.10;82.20
16283;DHT22;8249;48.708;9.030;2023-06-10T15:06:03;31.30;80.20
16283;DHT22;8249;48.708;9.030;2023-06-10T15:08:31;31.40;79.60
16283;DHT22;8249;48.708;9.030;2023-06-10T15:10:58;31.60;79.60
16283;DHT22;8249;48.708;9.030;2023-06-10T15:13:26;31.50;80.20
16283;DHT22;8249;48.708;9.030;2023-06-10T15:15:53;31.40;78.50
16283;DHT22;8249;48.708;9.030;2023-06-10T15:18:21;30.50;78.00
16283;DHT22;8249;48.708;9.030;2023-06-10T15:20:49;29.90;79.70
16283;DHT22;8249;48.708;9.030;2023-06-10T15:23:16;29.60;81.40
16283;DHT22;8249;48.708;9.030;2023-06-10T15:25:43;29.30;81.70
16283;DHT22;8249;48.708;9.030;2023-06-10T15:28:12;29.00;82.80
16283;DHT22;8249;48.708;9.030;2023-06-10T15:30:39;29.00;83.30
16283;DHT22;8249;48.708;9.030;2023-06-10T15:33:06;29.20;82.80
16283;DHT22;8249;48.708;9.030;2023-06-10T15:35:33;29.30;83.90
16283;DHT22;8249;48.708;9.030;2023-06-10T15:38:01;29.50;83.20
16283;DHT22;8249;48.708;9.030;2023-06-10T15:40:28;29.50;82.20
16283;DHT22;8249;48.708;9.030;2023-06-10T15:42:56;29.50;83.10
16283;DHT22;8249;48.708;9.030;2023-06-10T15:45:23;29.50;81.90
16283;DHT22;8249;48.708;9.030;2023-06-10T15:47:50;29.40;82.40
16283;DHT22;8249;48.708;9.030;2023-06-10T15:50:17;29.30;82.90
16283;DHT22;8249;48.708;9.030;2023-06-10T15:52:44;29.30;83.60